Time;durP1;ratioP1;P1;durP2;ratioP2;P2;SDS_P1;SDS_P2;PMS_P1;PMS_P2;Temp;Humidity;BMP_temperature;BMP_pressure;BME280_temperature;BME280_humidity;BME280_pressure;Samples;Min_cycle;Max_cycle;Signal;HPM_P1;HPM_P2
2022/06/12 00:00:23;;;;;;;4.30;2.30;;;;;;;;;;5033497;28;20029;-81
2022/06/12 00:02:49;;;;;;;3.30;1.90;;;;;;;;;;5033575;28;20025;-80
2022/06/12 00:05:17;;;;;;;4.05;1.85;;;;;;;;;;5033647;28;20416;-81
2022/06/12 00:07:43;;;;;;;7.28;2.00;;;;;;;;;;5033179;28;20029;-81
2022/06/12 00:10:10;;;;;;;4.07;1.90;;;;;;;;;;5033272;28;20022;-81
2022/06/12 00:12:37;;;;;;;8.95;1.90;;;;;;;;;;5033308;28;20099;-78
2022/06/12 00:15:04;;;;;;;4.82;1.52;;;;;;;;;;5033561;28;20083;-80
2022/06/12 00:17:30;;;;;;;6.55;1.60;;;;;;;;;;5033152;28;20033;-81
2022/06/12 00:19:56;;;;;;;5.28;1.80;;;;;;;;;;5033702;28;20104;-80
2022/06/12 00:22:21;;;;;;;4.82;1.52;;;;;;;;;;5033045;28;20104;-81
2022/06/12 00:24:47;;;;;;;6.57;1.90;;;;;;;;;;5033012;28;20041;-80
2022/06/12 00:27:14;;;;;;;3.80;1.60;;;;;;;;;;5033481;28;20050;-80
2022/06/12 00:29:41;;;;;;;3.45;1.70;;;;;;;;;;5033202;28;20547;-79
2022/06/12 00:32:12;;;;;;;7.82;1.90;;;;;;;;;;5032482;28;20021;-78
2022/06/12 00:34:48;;;;;;;4.90;1.88;;;;;;;;;;5033019;28;20053;-80
2022/06/12 00:37:15;;;;;;;4.85;2.00;;;;;;;;;;5033135;28;20116;-80
2022/06/12 00:39:42;;;;;;;5.22;2.30;;;;;;;;;;5032444;28;20037;-82
2022/06/12 00:42:18;;;;;;;5.72;2.03;;;;;;;;;;5032872;28;20093;-82
2022/06/12 00:44:44;;;;;;;7.30;2.00;;;;;;;;;;5032666;28;20036;-81
2022/06/12 00:47:14;;;;;;;8.65;2.30;;;;;;;;;;5032821;28;20030;-78
2022/06/12 00:49:44;;;;;;;6.80;2.40;;;;;;;;;;5032510;28;20452;-81
2022/06/12 00:52:34;;;;;;;8.65;2.45;;;;;;;;;;5032822;28;20481;-80
2022/06/12 00:55:17;;;;;;;8.32;2.65;;;;;;;;;;5032740;28;20036;-80
2022/06/12 00:57:44;;;;;;;6.35;2.85;;;;;;;;;;5032450;28;20041;-80
2022/06/12 01:00:13;;;;;;;9.13;2.88;;;;;;;;;;5032087;28;20032;-82
2022/06/12 01:02:41;;;;;;;6.38;2.70;;;;;;;;;;5032592;28;20099;-80
2022/06/12 01:07:57;;;;;;;8.25;2.90;;;;;;;;;;5032774;28;20555;-81
2022/06/12 01:10:25;;;;;;;7.05;2.95;;;;;;;;;;5031903;28;20025;-80
2022/06/12 01:12:54;;;;;;;7.70;3.10;;;;;;;;;;5032872;28;20072;-81
2022/06/12 01:15:24;;;;;;;7.20;3.13;;;;;;;;;;5032377;28;20481;-80
2022/06/12 01:17:51;;;;;;;8.77;3.00;;;;;;;;;;5032148;28;20475;-81
2022/06/12 01:20:21;;;;;;;6.97;2.92;;;;;;;;;;5031814;28;20029;-80
2022/06/12 01:22:57;;;;;;;5.63;3.13;;;;;;;;;;5032314;28;20045;-81
2022/06/12 01:25:22;;;;;;;9.48;3.60;;;;;;;;;;5032091;28;20033;-80
2022/06/12 01:28:16;;;;;;;7.63;3.38;;;;;;;;;;5032299;28;20405;-81
2022/06/12 01:30:54;;;;;;;8.25;3.40;;;;;;;;;;5031782;28;20535;-81
2022/06/12 01:33:29;;;;;;;13.63;3.80;;;;;;;;;;5031894;28;20052;-81
2022/06/12 01:35:58;;;;;;;8.52;3.45;;;;;;;;;;5030313;28;20240;-80
2022/06/12 01:38:56;;;;;;;8.93;3.58;;;;;;;;;;5031510;28;20432;-81
2022/06/12 01:41:46;;;;;;;9.30;3.95;;;;;;;;;;5031543;28;20408;-81
2022/06/12 01:44:39;;;;;;;9.27;3.42;;;;;;;;;;5031484;28;20057;-81
2022/06/12 01:47:20;;;;;;;8.75;3.70;;;;;;;;;;5031893;28;20120;-82
2022/06/12 01:50:12;;;;;;;11.38;3.80;;;;;;;;;;5031245;28;20108;-81
2022/06/12 01:52:58;;;;;;;10.57;3.80;;;;;;;;;;5015503;28;20167;-81
2022/06/12 01:55:29;;;;;;;10.00;4.20;;;;;;;;;;5031152;28;20041;-82
2022/06/12 01:57:57;;;;;;;;;;;;;;;;;;5032088;28;20029;-81
2022/06/12 02:00:25;;;;;;;10.63;3.90;;;;;;;;;;5031036;28;19917;-80
2022/06/12 02:03:17;;;;;;;9.00;4.00;;;;;;;;;;5031573;28;20104;-80
2022/06/12 02:05:51;;;;;;;21.08;4.40;;;;;;;;;;5031076;28;20091;-81
2022/06/12 02:08:19;;;;;;;10.13;4.30;;;;;;;;;;5031330;28;20374;-82
2022/06/12 02:10:47;;;;;;;11.27;3.95;;;;;;;;;;5030731;28;20033;-81
2022/06/12 02:13:46;;;;;;;8.05;4.22;;;;;;;;;;5031215;28;20026;-82
2022/06/12 02:16:20;;;;;;;10.50;4.30;;;;;;;;;;5008218;28;20060;-82
2022/06/12 02:18:52;;;;;;;10.80;4.53;;;;;;;;;;5030977;28;20438;-82
2022/06/12 02:21:30;;;;;;;12.65;4.53;;;;;;;;;;5030764;28;20061;-81
2022/06/12 02:24:16;;;;;;;12.45;4.90;;;;;;;;;;5030868;28;20037;-81
2022/06/12 02:27:05;;;;;;;11.88;4.68;;;;;;;;;;5030462;28;20049;-81
2022/06/12 02:29:39;;;;;;;12.10;3.88;;;;;;;;;;5024986;28;20034;-81
2022/06/12 02:32:17;;;;;;;10.70;4.38;;;;;;;;;;5030658;28;20124;-81
2022/06/12 02:34:49;;;;;;;9.90;4.57;;;;;;;;;;5030771;28;20025;-81
2022/06/12 02:37:19;;;;;;;14.95;4.20;;;;;;;;;;5030667;28;20511;-80
2022/06/12 02:39:51;;;;;;;12.40;4.53;;;;;;;;;;5030548;28;20025;-80
2022/06/12 02:42:26;;;;;;;10.60;4.55;;;;;;;;;;5030428;28;20033;-80
2022/06/12 02:44:59;;;;;;;10.57;4.45;;;;;;;;;;5030349;28;20409;-80
2022/06/12 02:47:30;;;;;;;10.18;4.57;;;;;;;;;;5030818;28;20159;-82
2022/06/12 02:49:57;;;;;;;12.88;4.63;;;;;;;;;;5030414;28;20505;-81
2022/06/12 02:52:59;;;;;;;9.27;4.43;;;;;;;;;;5030233;28;20041;-81
2022/06/12 02:55:51;;;;;;;9.98;4.28;;;;;;;;;;5029723;28;20018;-80
2022/06/12 02:58:25;;;;;;;10.90;4.25;;;;;;;;;;5030453;28;20033;-81
2022/06/12 03:00:57;;;;;;;10.65;4.20;;;;;;;;;;5030043;28;20025;-82
2022/06/12 03:04:04;;;;;;;13.27;4.55;;;;;;;;;;5030391;28;20029;-80
2022/06/12 03:06:29;;;;;;;10.40;4.13;;;;;;;;;;5030058;28;20436;-80
2022/06/12 03:08:58;;;;;;;8.93;4.10;;;;;;;;;;5030646;28;20083;-80
2022/06/12 03:11:30;;;;;;;11.98;4.22;;;;;;;;;;5030070;28;20083;-82
2022/06/12 03:13:57;;;;;;;10.68;4.20;;;;;;;;;;5030459;28;20396;-79
2022/06/12 03:16:31;;;;;;;10.13;4.60;;;;;;;;;;5030082;28;20044;-81
2022/06/12 03:19:03;;;;;;;11.02;3.90;;;;;;;;;;5030169;28;20398;-80
2022/06/12 03:21:38;;;;;;;12.18;4.20;;;;;;;;;;5029614;28;20109;-82
2022/06/12 03:24:15;;;;;;;9.48;4.13;;;;;;;;;;5029966;28;20405;-81
2022/06/12 03:27:00;;;;;;;8.68;3.83;;;;;;;;;;5030020;28;20036;-82
2022/06/12 03:30:03;;;;;;;9.35;4.13;;;;;;;;;;5028854;28;20048;-81
2022/06/12 03:33:13;;;;;;;9.80;4.10;;;;;;;;;;5029978;28;20087;-81
2022/06/12 03:36:09;;;;;;;8.25;4.25;;;;;;;;;;5026897;28;20038;-82
2022/06/12 03:38:53;;;;;;;12.00;4.20;;;;;;;;;;5030056;28;20121;-81
2022/06/12 03:41:47;;;;;;;12.60;4.47;;;;;;;;;;5029550;28;20390;-81
2022/06/12 03:44:34;;;;;;;10.98;4.40;;;;;;;;;;5028914;28;20025;-82
2022/06/12 03:47:12;;;;;;;8.85;4.20;;;;;;;;;;5029911;28;20026;-82
2022/06/12 03:49:50;;;;;;;13.30;5.25;;;;;;;;;;5030095;28;20076;-82
2022/06/12 03:52:23;;;;;;;12.95;4.43;;;;;;;;;;5029699;28;20079;-81
2022/06/12 03:54:54;;;;;;;10.88;4.40;;;;;;;;;;5029757;28;20148;-81
2022/06/12 03:57:53;;;;;;;11.65;4.55;;;;;;;;;;5029767;28;20036;-79
2022/06/12 04:00:31;;;;;;;11.25;4.50;;;;;;;;;;5029526;28;20112;-81
2022/06/12 04:03:00;;;;;;;8.60;4.07;;;;;;;;;;5029933;28;20051;-82
2022/06/12 04:05:59;;;;;;;11.50;4.40;;;;;;;;;;5029759;28;20064;-81
2022/06/12 04:08:29;;;;;;;11.32;4.43;;;;;;;;;;5031021;28;20041;-81
2022/06/12 04:10:55;;;;;;;;;;;;;;;;;;5033751;28;20022;-79
2022/06/12 04:13:22;;;;;;;12.00;4.38;;;;;;;;;;5033470;28;20534;-79
2022/06/12 04:16:00;;;;;;;8.98;4.13;;;;;;;;;;5033027;28;20021;-82
2022/06/12 04:18:28;;;;;;;10.20;4.35;;;;;;;;;;5033384;28;20040;-82
2022/06/12 04:21:03;;;;;;;10.60;4.45;;;;;;;;;;5032867;28;20033;-82
2022/06/12 04:24:04;;;;;;;11.18;4.55;;;;;;;;;;5031794;28;20044;-73
2022/06/12 04:26:41;;;;;;;11.57;4.35;;;;;;;;;;5016834;28;20049;-81
2022/06/12 04:29:28;;;;;;;11.60;4.80;;;;;;;;;;5033091;28;20033;-80
2022/06/12 04:31:58;;;;;;;12.35;4.68;;;;;;;;;;5032575;28;20545;-81
2022/06/12 04:34:28;;;;;;;11.70;3.90;;;;;;;;;;5033014;28;20021;-81
2022/06/12 04:36:57;;;;;;;10.23;4.38;;;;;;;;;;5032893;28;20076;-81
2022/06/12 04:39:28;;;;;;;10.23;4.20;;;;;;;;;;5032968;28;20029;-82
2022/06/12 04:41:53;;;;;;;14.18;4.22;;;;;;;;;;5032475;28;20105;-81
2022/06/12 04:44:19;;;;;;;8.88;4.20;;;;;;;;;;5032997;28;20057;-82
2022/06/12 04:46:47;;;;;;;9.02;4.20;;;;;;;;;;5032462;28;20072;-79
2022/06/12 04:49:18;;;;;;;13.02;4.55;;;;;;;;;;5032790;28;20026;-83
2022/06/12 04:51:44;;;;;;;;;;;;;;;;;;5032688;28;20021;-80
2022/06/12 04:54:09;;;;;;;8.63;4.00;;;;;;;;;;5032787;28;19913;-81
2022/06/12 04:56:35;;;;;;;10.07;3.78;;;;;;;;;;5032730;28;20028;-82
2022/06/12 04:59:03;;;;;;;10.43;4.07;;;;;;;;;;5032466;28;20041;-81
2022/06/12 05:01:29;;;;;;;9.98;3.80;;;;;;;;;;5032255;28;20033;-81
2022/06/12 05:03:56;;;;;;;9.00;3.75;;;;;;;;;;5032452;28;20021;-81
2022/06/12 05:06:21;;;;;;;8.68;4.07;;;;;;;;;;5031856;28;20044;-81
2022/06/12 05:08:49;;;;;;;10.93;4.32;;;;;;;;;;5032449;28;20030;-81
2022/06/12 05:11:16;;;;;;;9.60;4.05;;;;;;;;;;5032103;28;20033;-80
2022/06/12 05:13:42;;;;;;;10.40;3.70;;;;;;;;;;5032347;28;20034;-81
2022/06/12 05:16:12;;;;;;;11.52;4.45;;;;;;;;;;5032328;28;20037;-81
2022/06/12 05:18:38;;;;;;;11.65;4.40;;;;;;;;;;5031597;28;20075;-82
2022/06/12 05:21:03;;;;;;;9.65;3.70;;;;;;;;;;5030379;28;20073;-81
2022/06/12 05:23:29;;;;;;;9.00;3.63;;;;;;;;;;5031812;28;20493;-80
2022/06/12 05:25:54;;;;;;;10.43;3.67;;;;;;;;;;5032134;28;20025;-81
2022/06/12 05:28:20;;;;;;;9.18;3.65;;;;;;;;;;5031887;28;20032;-82
2022/06/12 05:30:46;;;;;;;8.77;3.63;;;;;;;;;;5031943;28;20064;-79
2022/06/12 05:33:12;;;;;;;16.20;4.32;;;;;;;;;;5032033;28;20025;-81
2022/06/12 05:35:38;;;;;;;9.55;3.85;;;;;;;;;;5031636;28;20029;-81
2022/06/12 05:38:06;;;;;;;11.73;3.70;;;;;;;;;;5031437;28;20178;-81
2022/06/12 05:40:34;;;;;;;7.40;3.40;;;;;;;;;;5031780;28;20072;-81
2022/06/12 05:43:00;;;;;;;11.63;3.25;;;;;;;;;;5031351;28;20035;-81
2022/06/12 05:45:28;;;;;;;9.80;3.70;;;;;;;;;;5031634;28;20025;-81
2022/06/12 05:48:02;;;;;;;9.73;3.47;;;;;;;;;;5031474;28;20029;-82
2022/06/12 05:50:30;;;;;;;11.82;3.92;;;;;;;;;;5031475;28;20557;-74
2022/06/12 05:52:56;;;;;;;7.00;3.60;;;;;;;;;;5030014;28;20068;-79
2022/06/12 05:55:22;;;;;;;7.47;3.78;;;;;;;;;;5031407;28;20060;-81
2022/06/12 05:57:48;;;;;;;10.23;3.50;;;;;;;;;;5031231;28;20022;-81
2022/06/12 06:00:18;;;;;;;10.32;3.72;;;;;;;;;;5031136;28;20017;-82
2022/06/12 06:02:43;;;;;;;9.32;3.90;;;;;;;;;;5030912;28;20049;-81
2022/06/12 06:05:10;;;;;;;11.90;3.90;;;;;;;;;;5031369;28;20107;-83
2022/06/12 06:07:36;;;;;;;7.75;3.35;;;;;;;;;;5029668;28;20382;-82
2022/06/12 06:10:04;;;;;;;9.63;4.18;;;;;;;;;;5031322;28;20037;-81
2022/06/12 06:12:30;;;;;;;8.63;3.72;;;;;;;;;;5030806;28;20025;-81
2022/06/12 06:14:55;;;;;;;9.07;3.40;;;;;;;;;;5031244;28;20158;-81
2022/06/12 06:17:21;;;;;;;9.23;3.50;;;;;;;;;;5030776;28;20530;-81
2022/06/12 06:19:46;;;;;;;8.77;3.58;;;;;;;;;;5030983;28;20036;-81
2022/06/12 06:22:16;;;;;;;9.15;3.65;;;;;;;;;;5030706;28;20121;-81
2022/06/12 06:24:42;;;;;;;12.15;3.45;;;;;;;;;;5030814;28;20045;-81
2022/06/12 06:27:09;;;;;;;10.93;3.90;;;;;;;;;;5030742;28;20481;-80
2022/06/12 06:29:36;;;;;;;8.82;3.65;;;;;;;;;;5030367;28;20029;-81
2022/06/12 06:32:02;;;;;;;9.85;3.33;;;;;;;;;;5029741;28;20601;-80
2022/06/12 06:34:27;;;;;;;6.85;3.20;;;;;;;;;;5030762;28;20049;-82
2022/06/12 06:36:53;;;;;;;9.13;3.20;;;;;;;;;;5030528;28;20025;-81
2022/06/12 06:39:18;;;;;;;9.18;3.03;;;;;;;;;;5029336;28;20112;-80
2022/06/12 06:41:44;;;;;;;8.98;3.30;;;;;;;;;;5030577;28;20025;-82
2022/06/12 06:46:53;;;;;;;8.77;3.30;;;;;;;;;;5030538;28;20709;-81
2022/06/12 06:49:20;;;;;;;11.40;3.30;;;;;;;;;;5030434;28;20017;-82
2022/06/12 06:51:45;;;;;;;7.95;3.20;;;;;;;;;;5030193;28;20029;-76
2022/06/12 06:54:11;;;;;;;6.88;3.25;;;;;;;;;;5030300;28;20153;-74
2022/06/12 06:56:36;;;;;;;8.23;3.28;;;;;;;;;;5030998;28;20017;-82
2022/06/12 06:59:02;;;;;;;8.05;3.10;;;;;;;;;;5030388;28;20108;-73
2022/06/12 07:01:27;;;;;;;7.95;3.05;;;;;;;;;;5030264;28;20052;-74
2022/06/12 07:03:53;;;;;;;9.55;3.30;;;;;;;;;;5029849;28;20033;-83
2022/06/12 07:06:20;;;;;;;10.40;3.22;;;;;;;;;;5030058;28;20026;-73
2022/06/12 07:08:45;;;;;;;11.73;3.17;;;;;;;;;;5030053;28;20553;-74
2022/06/12 07:11:10;;;;;;;6.35;3.05;;;;;;;;;;5030335;28;20057;-76
2022/06/12 07:13:36;;;;;;;8.93;2.95;;;;;;;;;;5029881;28;20025;-73
2022/06/12 07:16:01;;;;;;;9.57;3.25;;;;;;;;;;5030447;28;20045;-76
2022/06/12 07:18:27;;;;;;;7.68;3.45;;;;;;;;;;5030248;28;20030;-82
2022/06/12 07:20:56;;;;;;;6.53;3.10;;;;;;;;;;5029939;28;20029;-82
2022/06/12 07:23:23;;;;;;;11.10;3.53;;;;;;;;;;5029653;28;20045;-82
2022/06/12 07:25:54;;;;;;;7.82;3.22;;;;;;;;;;5030190;28;20509;-81
2022/06/12 07:28:22;;;;;;;12.52;3.63;;;;;;;;;;5029831;28;20037;-81
2022/06/12 07:30:47;;;;;;;8.50;3.35;;;;;;;;;;5030167;28;20029;-82
2022/06/12 07:33:13;;;;;;;6.03;3.08;;;;;;;;;;5029939;28;20038;-81
2022/06/12 07:35:40;;;;;;;9.35;3.25;;;;;;;;;;5030009;28;20385;-80
2022/06/12 07:38:07;;;;;;;7.35;3.03;;;;;;;;;;5029835;28;20021;-81
2022/06/12 07:40:37;;;;;;;8.57;2.85;;;;;;;;;;5030044;28;20029;-80
2022/06/12 07:43:03;;;;;;;10.18;3.42;;;;;;;;;;5032797;28;20420;-80
2022/06/12 07:45:30;;;;;;;8.38;3.25;;;;;;;;;;5033921;28;20033;-80
2022/06/12 07:47:56;;;;;;;6.45;2.85;;;;;;;;;;5033793;28;20029;-80
2022/06/12 07:50:21;;;;;;;8.30;2.97;;;;;;;;;;5033723;28;20033;-79
2022/06/12 07:52:47;;;;;;;8.38;2.78;;;;;;;;;;5033383;28;20156;-80
2022/06/12 07:55:15;;;;;;;5.95;3.10;;;;;;;;;;5033754;28;20044;-80
2022/06/12 07:57:41;;;;;;;9.90;3.22;;;;;;;;;;5033661;28;20036;-80
2022/06/12 08:00:10;;;;;;;6.88;2.92;;;;;;;;;;5033254;28;20026;-81
2022/06/12 08:02:35;;;;;;;6.45;3.10;;;;;;;;;;5033275;28;20026;-81
2022/06/12 08:05:01;;;;;;;8.23;3.17;;;;;;;;;;5033302;28;20026;-82
2022/06/12 08:07:27;;;;;;;7.18;3.33;;;;;;;;;;5033508;28;20374;-81
2022/06/12 08:09:52;;;;;;;9.23;3.38;;;;;;;;;;5033304;28;20033;-76
2022/06/12 08:12:18;;;;;;;7.93;3.30;;;;;;;;;;5033437;28;20041;-80
2022/06/12 08:14:43;;;;;;;9.75;3.30;;;;;;;;;;5032925;28;20029;-80
2022/06/12 08:17:09;;;;;;;9.50;3.28;;;;;;;;;;5033157;28;20408;-81
2022/06/12 08:22:19;;;;;;;7.07;3.00;;;;;;;;;;5033278;28;20092;-81
2022/06/12 08:24:45;;;;;;;7.53;2.95;;;;;;;;;;5032946;28;20090;-82
2022/06/12 08:27:10;;;;;;;9.15;3.53;;;;;;;;;;5033141;28;20049;-82
2022/06/12 08:29:36;;;;;;;10.38;3.10;;;;;;;;;;5032893;28;20025;-81
2022/06/12 08:32:11;;;;;;;10.23;3.28;;;;;;;;;;5032907;28;20072;-80
2022/06/12 08:34:41;;;;;;;5.50;2.80;;;;;;;;;;5032436;28;20052;-81
2022/06/12 08:37:11;;;;;;;6.93;2.97;;;;;;;;;;5032846;28;20137;-78
2022/06/12 08:39:37;;;;;;;5.93;3.10;;;;;;;;;;5032675;28;20037;-80
2022/06/12 08:42:27;;;;;;;6.82;2.97;;;;;;;;;;5033070;28;20102;-81
2022/06/12 08:45:06;;;;;;;7.00;2.97;;;;;;;;;;5032626;28;20477;-81
2022/06/12 08:47:35;;;;;;;8.23;3.30;;;;;;;;;;5032727;28;20460;-81
2022/06/12 08:50:25;;;;;;;6.53;2.97;;;;;;;;;;5032512;28;20021;-81
2022/06/12 08:52:58;;;;;;;9.43;3.05;;;;;;;;;;5031653;28;20266;-81
2022/06/12 08:55:36;;;;;;;7.75;2.85;;;;;;;;;;5032485;28;20038;-81
2022/06/12 08:58:12;;;;;;;6.82;2.83;;;;;;;;;;5031285;28;20045;-81
2022/06/12 09:00:42;;;;;;;6.18;3.30;;;;;;;;;;5032372;28;20555;-80
2022/06/12 09:03:14;;;;;;;6.27;3.03;;;;;;;;;;5032519;28;20029;-80
2022/06/12 09:05:51;;;;;;;7.55;2.90;;;;;;;;;;5032137;28;20022;-80
2022/06/12 09:08:31;;;;;;;4.93;2.72;;;;;;;;;;5032062;28;20025;-80
2022/06/12 09:11:00;;;;;;;;;;;;;;;;;;5032536;28;20029;-79
2022/06/12 09:13:27;;;;;;;6.80;3.00;;;;;;;;;;5032160;28;19913;-80
2022/06/12 09:16:23;;;;;;;6.68;2.80;;;;;;;;;;5032192;28;20148;-81
2022/06/12 09:18:59;;;;;;;8.05;2.88;;;;;;;;;;5012559;28;20056;-81
2022/06/12 09:21:56;;;;;;;7.35;3.20;;;;;;;;;;5032051;28;20022;-81
2022/06/12 09:24:38;;;;;;;6.55;3.00;;;;;;;;;;5031326;28;20045;-81
2022/06/12 09:27:41;;;;;;;7.05;3.25;;;;;;;;;;5031801;28;20021;-81
2022/06/12 09:30:37;;;;;;;6.88;3.28;;;;;;;;;;5031827;28;20033;-81
2022/06/12 09:33:21;;;;;;;8.00;3.50;;;;;;;;;;5031760;28;20034;-81
2022/06/12 09:36:19;;;;;;;7.20;3.20;;;;;;;;;;5031762;28;20505;-81
2022/06/12 09:39:06;;;;;;;6.18;3.17;;;;;;;;;;5031620;28;20114;-81
2022/06/12 09:41:45;;;;;;;7.32;2.97;;;;;;;;;;5031691;28;20541;-81
2022/06/12 09:44:32;;;;;;;8.73;3.35;;;;;;;;;;5031077;28;20473;-81
2022/06/12 09:47:04;;;;;;;12.52;3.03;;;;;;;;;;5031694;28;20044;-81
2022/06/12 09:49:38;;;;;;;5.40;3.03;;;;;;;;;;5030042;28;20496;-80
2022/06/12 09:52:27;;;;;;;7.10;3.08;;;;;;;;;;5031361;28;20029;-80
2022/06/12 09:55:19;;;;;;;8.35;3.00;;;;;;;;;;5031187;28;20029;-81
2022/06/12 09:57:51;;;;;;;8.20;3.05;;;;;;;;;;5031496;28;20075;-79
2022/06/12 10:00:23;;;;;;;7.43;2.72;;;;;;;;;;5030957;28;20036;-78
2022/06/12 10:03:10;;;;;;;6.80;2.95;;;;;;;;;;5031248;28;20033;-81
2022/06/12 10:05:44;;;;;;;6.20;3.00;;;;;;;;;;5030908;28;20057;-73
2022/06/12 10:08:19;;;;;;;11.57;3.00;;;;;;;;;;5031312;28;20025;-73
2022/06/12 10:10:52;;;;;;;7.35;3.20;;;;;;;;;;5030995;28;20053;-79
2022/06/12 10:13:34;;;;;;;8.90;3.20;;;;;;;;;;5030976;28;20444;-81
2022/06/12 10:16:08;;;;;;;9.38;3.13;;;;;;;;;;5030796;28;20032;-80
2022/06/12 10:18:42;;;;;;;11.65;3.03;;;;;;;;;;5030908;28;20043;-80
2022/06/12 10:21:12;;;;;;;6.78;2.97;;;;;;;;;;5030550;28;20052;-80
2022/06/12 10:23:40;;;;;;;9.10;3.20;;;;;;;;;;5030707;28;20623;-74
2022/06/12 10:26:23;;;;;;;6.22;3.00;;;;;;;;;;5029529;28;20033;-74
2022/06/12 10:29:24;;;;;;;7.55;3.47;;;;;;;;;;5030743;28;20124;-72
2022/06/12 10:31:58;;;;;;;8.50;3.20;;;;;;;;;;5023202;28;20048;-72
2022/06/12 10:34:28;;;;;;;6.30;3.03;;;;;;;;;;5030458;28;20037;-73
2022/06/12 10:36:55;;;;;;;6.72;2.95;;;;;;;;;;5030180;28;20096;-73
2022/06/12 10:39:25;;;;;;;5.25;3.00;;;;;;;;;;5030761;28;20029;-78
2022/06/12 10:42:08;;;;;;;6.15;3.15;;;;;;;;;;5030510;28;20041;-78
2022/06/12 10:44:38;;;;;;;8.90;3.50;;;;;;;;;;5030146;28;20040;-72
2022/06/12 10:47:10;;;;;;;;;;;;;;;;;;5031202;28;20555;-73
2022/06/12 10:49:36;;;;;;;8.15;3.63;;;;;;;;;;5030468;28;20007;-81
2022/06/12 10:52:07;;;;;;;7.72;3.28;;;;;;;;;;5030258;28;20722;-78
2022/06/12 10:54:33;;;;;;;9.07;3.70;;;;;;;;;;5030410;28;20087;-80
2022/06/12 10:57:19;;;;;;;7.60;3.80;;;;;;;;;;5030574;28;20420;-82
2022/06/12 11:00:01;;;;;;;8.07;3.75;;;;;;;;;;5030368;28;20056;-81
2022/06/12 11:02:42;;;;;;;7.82;3.80;;;;;;;;;;5030153;28;20048;-77
2022/06/12 11:05:31;;;;;;;8.75;3.42;;;;;;;;;;5029926;28;20029;-81
2022/06/12 11:08:25;;;;;;;8.60;3.45;;;;;;;;;;5030286;28;20037;-80
2022/06/12 11:11:06;;;;;;;8.60;3.63;;;;;;;;;;5030357;28;20026;-81
2022/06/12 11:13:56;;;;;;;5.93;3.20;;;;;;;;;;5030241;28;20025;-79
2022/06/12 11:16:29;;;;;;;;;;;;;;;;;;5032387;28;20087;-79
2022/06/12 11:19:10;;;;;;;6.97;3.65;;;;;;;;;;5036799;28;20008;-79
2022/06/12 11:21:39;;;;;;;6.85;3.47;;;;;;;;;;5034854;28;20029;-81
2022/06/12 11:24:26;;;;;;;10.07;3.72;;;;;;;;;;5036365;28;20045;-77
2022/06/12 11:26:54;;;;;;;7.18;3.90;;;;;;;;;;5036425;28;20108;-79
2022/06/12 11:29:33;;;;;;;7.72;3.67;;;;;;;;;;5036915;28;20033;-76
2022/06/12 11:32:00;;;;;;;7.40;3.53;;;;;;;;;;5036511;28;20029;-81
2022/06/12 11:34:40;;;;;;;10.18;3.78;;;;;;;;;;5036448;28;20029;-81
2022/06/12 11:37:08;;;;;;;;;;;;;;;;;;5036919;28;20104;-79
2022/06/12 11:39:46;;;;;;;6.53;3.63;;;;;;;;;;5036583;28;19913;-82
2022/06/12 11:42:18;;;;;;;8.60;3.80;;;;;;;;;;5036232;28;20021;-79
2022/06/12 11:44:56;;;;;;;7.15;3.45;;;;;;;;;;5036436;28;20018;-80
2022/06/12 11:47:44;;;;;;;6.07;3.35;;;;;;;;;;5036393;28;20026;-76
2022/06/12 11:50:16;;;;;;;5.70;3.65;;;;;;;;;;5036568;28;20041;-80
2022/06/12 11:52:56;;;;;;;7.85;3.70;;;;;;;;;;5036528;28;20183;-81
2022/06/12 11:55:40;;;;;;;;;;;;;;;;;;5036713;28;20091;-77
2022/06/12 11:58:05;;;;;;;6.40;3.63;;;;;;;;;;5036394;28;20009;-81
2022/06/12 12:00:56;;;;;;;7.50;3.60;;;;;;;;;;5036076;28;20116;-79
2022/06/12 12:03:29;;;;;;;6.18;3.65;;;;;;;;;;5036341;28;20052;-80
2022/06/12 12:06:26;;;;;;;7.18;3.95;;;;;;;;;;5035700;28;20105;-76
2022/06/12 12:09:21;;;;;;;7.75;3.45;;;;;;;;;;5015208;28;20080;-79
2022/06/12 12:11:53;;;;;;;6.55;3.58;;;;;;;;;;5036183;28;20025;-81
2022/06/12 12:14:23;;;;;;;7.32;3.72;;;;;;;;;;5035003;28;20105;-81
2022/06/12 12:17:06;;;;;;;8.13;4.10;;;;;;;;;;5036087;28;20029;-78
2022/06/12 12:19:35;;;;;;;6.15;3.97;;;;;;;;;;5036560;28;20425;-80
2022/06/12 12:22:06;;;;;;;9.23;4.47;;;;;;;;;;5035928;28;20032;-80
2022/06/12 12:24:39;;;;;;;7.32;4.50;;;;;;;;;;5036091;28;20056;-81
2022/06/12 12:27:13;;;;;;;7.03;4.25;;;;;;;;;;5036033;28;20029;-80
2022/06/12 12:29:39;;;;;;;8.02;4.95;;;;;;;;;;5033511;28;20061;-81
2022/06/12 12:32:08;;;;;;;13.20;5.13;;;;;;;;;;5033772;28;20492;-80
2022/06/12 12:34:35;;;;;;;7.50;4.63;;;;;;;;;;5036556;28;20056;-79
2022/06/12 12:42:40;;;;;;;10.15;5.00;;;;;;;;;;5047113;28;20040;-79
2022/06/12 12:45:24;;;;;;;7.32;4.65;;;;;;;;;;5036424;28;20034;-79
2022/06/12 12:48:03;;;;;;;9.52;4.70;;;;;;;;;;5033619;28;20547;-82
2022/06/12 12:50:29;;;;;;;10.32;4.60;;;;;;;;;;5033815;28;20511;-77
2022/06/12 12:52:57;;;;;;;7.65;4.32;;;;;;;;;;5033695;28;20021;-81
2022/06/12 12:55:35;;;;;;;7.15;4.30;;;;;;;;;;5039720;28;20034;-78
2022/06/12 12:58:15;;;;;;;10.20;4.80;;;;;;;;;;5048471;28;20025;-80
2022/06/12 13:00:41;;;;;;;6.70;4.60;;;;;;;;;;5048688;28;20081;-75
2022/06/12 13:03:06;;;;;;;7.28;4.20;;;;;;;;;;5049172;28;20029;-77
2022/06/12 13:05:47;;;;;;;7.68;4.68;;;;;;;;;;5045947;28;20081;-77
2022/06/12 13:08:15;;;;;;;;;;;;;;;;;;5045953;28;20131;-77
2022/06/12 13:11:08;;;;;;;11.60;4.40;;;;;;;;;;5044182;28;19952;-73
2022/06/12 13:14:11;;;;;;;7.00;4.07;;;;;;;;;;5039070;28;20511;-74
2022/06/12 13:16:52;;;;;;;8.90;4.10;;;;;;;;;;5032325;28;20030;-79
2022/06/12 13:19:40;;;;;;;;;;;;;;;;;;5032967;28;20037;-73
2022/06/12 13:22:21;;;;;;;6.53;4.22;;;;;;;;;;5026206;28;19967;-81
2022/06/12 13:25:11;;;;;;;7.93;4.47;;;;;;;;;;5030720;28;20380;-78
2022/06/12 13:27:50;;;;;;;7.32;3.90;;;;;;;;;;5031794;28;20044;-78
2022/06/12 13:30:21;;;;;;;9.35;4.45;;;;;;;;;;5032161;28;20017;-80
2022/06/12 13:32:47;;;;;;;8.32;4.50;;;;;;;;;;5031895;28;20029;-81
2022/06/12 13:35:21;;;;;;;6.82;4.18;;;;;;;;;;5031826;28;20026;-81
2022/06/12 13:37:49;;;;;;;7.57;4.68;;;;;;;;;;5031698;28;20031;-80
2022/06/12 13:40:38;;;;;;;7.78;4.32;;;;;;;;;;5031459;28;20485;-80
2022/06/12 13:43:11;;;;;;;9.80;4.43;;;;;;;;;;5032039;28;20029;-81
2022/06/12 13:45:37;;;;;;;7.63;4.15;;;;;;;;;;5032142;28;20087;-80
2022/06/12 13:48:20;;;;;;;7.95;4.25;;;;;;;;;;5032055;28;20025;-81
2022/06/12 13:50:51;;;;;;;8.23;4.30;;;;;;;;;;5032444;28;20026;-81
2022/06/12 13:53:18;;;;;;;9.88;4.18;;;;;;;;;;5031514;28;20025;-80
2022/06/12 13:55:53;;;;;;;5.90;3.80;;;;;;;;;;5031682;28;20026;-80
2022/06/12 13:58:30;;;;;;;7.38;4.30;;;;;;;;;;5031203;28;20030;-81
2022/06/12 14:01:14;;;;;;;5.60;3.88;;;;;;;;;;5031720;28;20030;-81
2022/06/12 14:03:49;;;;;;;7.65;3.85;;;;;;;;;;5031624;28;20203;-80
2022/06/12 14:06:17;;;;;;;8.70;4.03;;;;;;;;;;5031352;28;20547;-80
2022/06/12 14:08:43;;;;;;;6.57;3.90;;;;;;;;;;5031700;28;20371;-80
2022/06/12 14:11:20;;;;;;;6.07;3.63;;;;;;;;;;5031662;28;20072;-82
2022/06/12 14:13:46;;;;;;;9.68;3.97;;;;;;;;;;5031666;28;20394;-75
2022/06/12 14:16:20;;;;;;;6.60;3.88;;;;;;;;;;5031389;28;20057;-79
2022/06/12 14:19:00;;;;;;;6.63;4.07;;;;;;;;;;5031049;28;20088;-80
2022/06/12 14:21:34;;;;;;;7.88;4.45;;;;;;;;;;5031293;28;20522;-79
2022/06/12 14:24:14;;;;;;;5.15;4.00;;;;;;;;;;5030895;28;20049;-81
2022/06/12 14:26:49;;;;;;;6.07;4.15;;;;;;;;;;5031108;28;20036;-81
2022/06/12 14:29:36;;;;;;;8.98;4.40;;;;;;;;;;5031021;28;20025;-73
2022/06/12 14:32:10;;;;;;;7.30;4.15;;;;;;;;;;5030894;28;20029;-78
2022/06/12 14:34:37;;;;;;;6.10;4.00;;;;;;;;;;5030680;28;20029;-75
2022/06/12 14:37:02;;;;;;;6.30;3.92;;;;;;;;;;5030688;28;20029;-80
2022/06/12 14:39:34;;;;;;;6.00;3.88;;;;;;;;;;5030859;28;20087;-81
2022/06/12 14:42:12;;;;;;;6.65;4.22;;;;;;;;;;5031138;28;20030;-81
2022/06/12 14:44:38;;;;;;;7.28;4.53;;;;;;;;;;5030902;28;20083;-80
2022/06/12 14:47:12;;;;;;;5.47;3.75;;;;;;;;;;5030596;28;20108;-82
2022/06/12 14:49:37;;;;;;;7.07;4.13;;;;;;;;;;5029234;28;20057;-75
2022/06/12 14:52:03;;;;;;;5.65;3.70;;;;;;;;;;5029777;28;20053;-80
2022/06/12 14:54:29;;;;;;;5.43;3.53;;;;;;;;;;5030522;28;20029;-80
2022/06/12 14:56:55;;;;;;;7.10;3.45;;;;;;;;;;5029104;28;20029;-80
2022/06/12 14:59:24;;;;;;;5.65;3.55;;;;;;;;;;5030526;28;20121;-79
2022/06/12 15:01:50;;;;;;;4.68;3.60;;;;;;;;;;5030474;28;20034;-74
2022/06/12 15:04:16;;;;;;;6.28;3.67;;;;;;;;;;5030542;28;20099;-78
2022/06/12 15:06:42;;;;;;;6.32;3.20;;;;;;;;;;5029152;28;20025;-81
2022/06/12 15:09:08;;;;;;;5.65;3.70;;;;;;;;;;5030275;28;20037;-81
2022/06/12 15:11:34;;;;;;;7.28;3.45;;;;;;;;;;5030535;28;20086;-80
2022/06/12 15:14:00;;;;;;;4.55;3.33;;;;;;;;;;5030264;28;20532;-82
2022/06/12 15:16:28;;;;;;;6.57;3.30;;;;;;;;;;5030338;28;20040;-80
2022/06/12 15:18:57;;;;;;;5.03;3.35;;;;;;;;;;5030312;28;20049;-81
2022/06/12 15:21:29;;;;;;;3.60;2.60;;;;;;;;;;5030078;28;20493;-73
2022/06/12 15:23:55;;;;;;;5.38;2.95;;;;;;;;;;5030119;28;20099;-78
2022/06/12 15:31:51;;;;;;;9.38;3.03;;;;;;;;;;5030428;28;20033;-81
2022/06/12 15:34:17;;;;;;;5.93;2.85;;;;;;;;;;5030042;28;20050;-80
2022/06/12 15:36:42;;;;;;;4.10;2.80;;;;;;;;;;5029998;28;20061;-79
2022/06/12 15:39:08;;;;;;;4.47;2.65;;;;;;;;;;5029932;28;20072;-80